createdAt,value
2024-04-25T00:00:50.475Z,76.28
2024-04-25T00:03:20.736Z,78.80
2024-04-25T00:05:50.717Z,80.67
2024-04-25T00:08:21.118Z,82.60
2024-04-25T00:10:54.897Z,83.34
2024-04-25T00:13:29.847Z,84.37
2024-04-25T00:16:02.962Z,83.27
2024-04-25T00:18:32.975Z,82.75
2024-04-25T00:21:05.581Z,84.22
2024-04-25T00:23:35.589Z,85.66
2024-04-25T00:26:06.619Z,87.71
2024-04-25T00:28:39.464Z,87.67
2024-04-25T00:31:09.487Z,86.85
2024-04-25T00:33:40.183Z,85.25
2024-04-25T00:36:10.932Z,85.23
2024-04-25T00:38:41.387Z,83.04
2024-04-25T00:41:11.358Z,80.92
2024-04-25T00:43:44.477Z,81.11
2024-04-25T00:46:14.413Z,79.91
2024-04-25T00:48:44.991Z,79.86
2024-04-25T00:51:18.806Z,80.80
2024-04-25T00:53:50.652Z,81.44
2024-04-25T00:56:24.723Z,80.71
2024-04-25T00:59:04.155Z,81.17
2024-04-25T01:01:38.201Z,82.64
2024-04-25T01:04:10.004Z,83.08
2024-04-25T01:06:44.819Z,81.82
2024-04-25T01:09:14.787Z,82.59
2024-04-25T01:11:45.116Z,83.88
2024-04-25T01:14:18.340Z,83.75
2024-04-25T01:16:48.487Z,86.84
2024-04-25T01:19:19.928Z,89.30
2024-04-25T01:21:51.434Z,90.89
2024-04-25T01:24:30.924Z,91.80
2024-04-25T01:27:07.154Z,93.53
2024-04-25T01:29:40.856Z,95.56
2024-04-25T01:32:11.211Z,96.80
2024-04-25T01:34:45.771Z,97.40
2024-04-25T01:37:15.874Z,98.21
2024-04-25T01:39:49.090Z,99.43
2024-04-25T01:42:23.633Z,96.84
2024-04-25T01:44:53.578Z,97.05
2024-04-25T01:47:25.382Z,96.63
2024-04-25T01:49:55.408Z,96.72
2024-04-25T01:52:25.581Z,98.06
2024-04-25T01:54:55.509Z,96.46
2024-04-25T01:57:28.133Z,95.49
2024-04-25T01:59:58.557Z,97.03
2024-04-25T02:02:28.567Z,96.53
2024-04-25T02:04:59.427Z,97.74
2024-04-25T02:07:29.474Z,96.58
2024-04-25T02:09:59.835Z,98.36
2024-04-25T02:12:33.173Z,99.85
2024-04-25T02:15:04.028Z,100.00
2024-04-25T02:17:34.120Z,100.00
2024-04-25T02:20:24.534Z,100.00
2024-04-25T02:23:10.529Z,100.00
2024-04-25T02:25:41.370Z,100.00
2024-04-25T02:28:14.023Z,100.00
2024-04-25T02:30:44.763Z,100.00
2024-04-25T02:33:14.854Z,100.00
2024-04-25T02:35:45.494Z,100.00
2024-04-25T02:38:15.530Z,100.00
2024-04-25T02:40:47.102Z,100.00
2024-04-25T02:43:21.014Z,100.00
2024-04-25T02:45:48.367Z,100.00
2024-04-25T02:48:19.911Z,99.25
2024-04-25T02:50:47.382Z,96.89
2024-04-25T02:53:18.372Z,94.37
2024-04-25T02:55:45.731Z,94.38
2024-04-25T02:58:15.658Z,94.15
2024-04-25T03:00:45.769Z,95.10
2024-04-25T03:03:15.836Z,97.26
2024-04-25T03:05:43.502Z,96.99
2024-04-25T03:08:13.530Z,96.07
2024-04-25T03:10:42.122Z,93.65
2024-04-25T03:13:12.097Z,93.84
2024-04-25T03:15:40.617Z,93.67
2024-04-25T03:18:13.582Z,91.73
2024-04-25T03:20:42.230Z,90.68
2024-04-25T03:23:12.228Z,92.02
2024-04-25T03:25:41.392Z,89.36
2024-04-25T03:28:11.398Z,88.12
2024-04-25T03:30:41.284Z,90.83
2024-04-25T03:33:13.914Z,88.84
2024-04-25T03:35:41.751Z,89.13
2024-04-25T03:38:11.903Z,89.77
2024-04-25T03:40:46.073Z,88.07
2024-04-25T03:43:16.086Z,85.17
2024-04-25T03:45:46.370Z,85.86
2024-04-25T03:48:19.649Z,88.53
2024-04-25T03:50:49.784Z,89.71
2024-04-25T03:53:20.674Z,89.09
2024-04-25T03:55:51.250Z,86.07
2024-04-25T03:58:21.944Z,86.02
2024-04-25T04:00:51.871Z,86.23
2024-04-25T04:03:24.535Z,84.78
2024-04-25T04:05:54.528Z,86.13
2024-04-25T04:08:25.080Z,83.07
2024-04-25T04:10:55.091Z,83.43
2024-04-25T04:13:25.429Z,81.98
2024-04-25T04:15:55.459Z,83.05
2024-04-25T04:18:28.058Z,81.80
2024-04-25T04:20:58.348Z,80.74
2024-04-25T04:23:28.342Z,81.47
2024-04-25T04:25:59.774Z,81.51
2024-04-25T04:28:29.721Z,82.31
2024-04-25T04:31:00.458Z,83.89
2024-04-25T04:33:39.847Z,82.90
2024-04-25T04:36:11.444Z,83.08
2024-04-25T04:38:43.520Z,81.83
2024-04-25T04:41:13.704Z,81.34
2024-04-25T04:43:43.765Z,81.59
2024-04-25T04:46:13.721Z,80.12
2024-04-25T04:48:49.452Z,78.67
2024-04-25T04:51:22.672Z,80.80
2024-04-25T04:53:52.866Z,79.95
2024-04-25T04:56:26.774Z,77.64
2024-04-25T04:58:58.532Z,78.87
2024-04-25T05:01:28.827Z,77.93
2024-04-25T05:04:02.616Z,79.16
2024-04-25T05:06:32.628Z,80.34
2024-04-25T05:09:07.317Z,81.02
2024-04-25T05:11:37.317Z,81.61
2024-04-25T05:14:11.452Z,79.26
2024-04-25T05:16:43.157Z,77.68
2024-04-25T05:19:15.806Z,79.72
2024-04-25T05:21:47.692Z,79.88
2024-04-25T05:24:18.647Z,78.54
2024-04-25T05:26:49.418Z,77.92
2024-04-25T05:29:19.742Z,79.47
2024-04-25T05:31:49.713Z,77.39
2024-04-25T05:34:23.772Z,78.86
2024-04-25T05:36:53.748Z,79.86
2024-04-25T05:39:27.581Z,80.32
2024-04-25T05:41:59.116Z,81.93
2024-04-25T05:44:29.134Z,80.61
2024-04-25T05:47:00.777Z,79.98
2024-04-25T05:49:33.525Z,79.44
2024-04-25T05:52:04.582Z,78.88
2024-04-25T05:54:35.464Z,77.16
2024-04-25T05:57:05.916Z,77.92
2024-04-25T05:59:35.939Z,78.16
2024-04-25T06:02:08.430Z,78.73
2024-04-25T06:04:44.608Z,82.11
2024-04-25T06:07:14.977Z,81.45
2024-04-25T06:09:45.182Z,81.76
2024-04-25T06:12:15.703Z,84.61
2024-04-25T06:14:45.936Z,84.06
2024-04-25T06:17:16.572Z,84.37
2024-04-25T06:19:51.404Z,86.48
2024-04-25T06:22:23.791Z,87.17
2024-04-25T06:24:53.758Z,84.94
2024-04-25T06:27:25.818Z,86.02
2024-04-25T06:29:55.764Z,89.34
2024-04-25T06:32:29.172Z,88.14
2024-04-25T06:35:03.732Z,85.15
2024-04-25T06:37:35.304Z,84.43
2024-04-25T06:40:06.547Z,84.24
2024-04-25T06:42:36.581Z,86.37
2024-04-25T06:45:07.214Z,82.81
2024-04-25T06:47:39.453Z,82.30
2024-04-25T06:50:12.558Z,82.97
2024-04-25T06:52:43.235Z,80.96
2024-04-25T06:55:13.495Z,80.67
2024-04-25T06:57:43.930Z,81.46
2024-04-25T07:00:15.876Z,81.01
2024-04-25T07:02:46.292Z,78.59
2024-04-25T07:05:21.327Z,77.81
2024-04-25T07:07:51.564Z,75.84
2024-04-25T07:10:25.520Z,76.93
2024-04-25T07:12:55.650Z,77.35
2024-04-25T07:15:28.018Z,76.40
2024-04-25T07:18:00.497Z,74.82
2024-04-25T07:20:33.718Z,76.37
2024-04-25T07:23:03.732Z,72.27
2024-04-25T07:25:33.781Z,73.52
2024-04-25T07:28:03.780Z,75.04
2024-04-25T07:30:33.779Z,74.65
2024-04-25T07:33:03.957Z,73.45
2024-04-25T07:35:36.663Z,69.90
2024-04-25T07:38:06.989Z,72.30
2024-04-25T07:40:38.564Z,71.48
2024-04-25T07:43:08.949Z,69.07
2024-04-25T07:45:39.147Z,68.78
2024-04-25T07:48:10.536Z,70.57
2024-04-25T07:50:43.421Z,72.31
2024-04-25T07:53:13.453Z,69.96
2024-04-25T07:55:44.713Z,67.52
2024-04-25T07:58:15.529Z,65.38
2024-04-25T08:00:46.336Z,61.19
2024-04-25T08:03:17.044Z,58.42
2024-04-25T08:05:50.549Z,57.00
2024-04-25T08:08:24.871Z,56.40
2024-04-25T08:10:56.658Z,57.52
2024-04-25T08:13:26.735Z,58.35
2024-04-25T08:15:56.794Z,58.63
2024-04-25T08:18:27.017Z,60.45
2024-04-25T08:21:00.618Z,62.51
2024-04-25T08:23:30.810Z,60.51
2024-04-25T08:26:00.980Z,59.00
2024-04-25T08:28:31.173Z,60.14
2024-04-25T08:31:01.237Z,58.27
2024-04-25T08:33:31.398Z,56.83
2024-04-25T08:36:04.282Z,56.16
2024-04-25T08:38:35.958Z,55.76
2024-04-25T08:41:07.268Z,53.63
2024-04-25T08:43:41.785Z,55.19
2024-04-25T08:46:17.300Z,55.28
2024-04-25T08:48:48.717Z,53.69
2024-04-25T08:51:26.853Z,53.76
2024-04-25T08:54:02.442Z,52.27
2024-04-25T08:56:34.456Z,52.94
2024-04-25T08:59:04.496Z,52.49
2024-04-25T09:01:36.679Z,52.47
2024-04-25T09:04:15.481Z,51.32
2024-04-25T09:06:48.778Z,51.70
2024-04-25T09:09:19.788Z,50.64
2024-04-25T09:11:56.626Z,53.05
2024-04-25T09:14:26.759Z,54.88
2024-04-25T09:16:56.922Z,54.90
2024-04-25T09:19:27.874Z,54.69
2024-04-25T09:22:00.595Z,52.82
2024-04-25T09:24:30.560Z,51.16
2024-04-25T09:27:00.660Z,50.14
2024-04-25T09:29:32.771Z,47.75
2024-04-25T09:32:03.972Z,47.67
2024-04-25T09:34:34.471Z,44.50
2024-04-25T09:37:07.602Z,46.48
2024-04-25T09:39:40.487Z,48.62
2024-04-25T09:42:13.502Z,49.03
2024-04-25T09:44:44.196Z,49.27
2024-04-25T09:47:23.030Z,49.81
2024-04-25T09:50:00.304Z,49.63
2024-04-25T09:52:41.883Z,48.28
2024-04-25T09:55:22.585Z,47.38
2024-04-25T09:57:59.522Z,46.24
2024-04-25T10:00:30.256Z,45.18
2024-04-25T10:03:01.883Z,44.24
2024-04-25T10:05:32.201Z,43.59
2024-04-25T10:08:05.798Z,43.85
2024-04-25T10:10:36.313Z,43.64
2024-04-25T10:13:06.323Z,44.28
2024-04-25T10:15:37.682Z,41.58
2024-04-25T10:18:10.678Z,41.31
2024-04-25T10:20:40.857Z,42.45
2024-04-25T10:23:13.585Z,41.84
2024-04-25T10:25:55.485Z,41.14
2024-04-25T10:28:25.809Z,41.59
2024-04-25T10:30:59.118Z,42.67
2024-04-25T10:33:29.459Z,43.07
2024-04-25T10:36:07.401Z,41.99
2024-04-25T10:38:43.892Z,42.19
2024-04-25T10:41:16.687Z,41.94
2024-04-25T10:43:50.383Z,41.72
2024-04-25T10:46:20.848Z,40.95
2024-04-25T10:48:52.137Z,41.07
2024-04-25T10:51:24.417Z,40.28
2024-04-25T10:53:57.897Z,41.29
2024-04-25T10:56:28.126Z,41.85
2024-04-25T10:59:00.611Z,42.13
2024-04-25T11:01:32.831Z,42.01
2024-04-25T11:04:05.023Z,41.21
2024-04-25T11:06:37.996Z,42.14
2024-04-25T11:09:15.045Z,42.15
2024-04-25T11:11:45.288Z,43.54
2024-04-25T11:14:15.416Z,42.71
2024-04-25T11:16:45.447Z,41.42
2024-04-25T11:19:18.807Z,42.76
2024-04-25T11:21:53.451Z,42.51
2024-04-25T11:24:27.559Z,42.42
2024-04-25T11:27:00.815Z,42.82
2024-04-25T11:29:30.958Z,42.50
2024-04-25T11:32:01.132Z,43.06
2024-04-25T11:34:31.326Z,44.23
2024-04-25T11:37:02.659Z,44.14
2024-04-25T11:39:39.418Z,44.05
2024-04-25T11:42:10.690Z,42.37
2024-04-25T11:44:41.056Z,42.47
2024-04-25T11:47:11.227Z,42.26
2024-04-25T11:49:41.217Z,41.75
2024-04-25T11:52:11.395Z,41.03
2024-04-25T11:54:44.054Z,41.31
2024-04-25T11:57:14.041Z,41.38
2024-04-25T11:59:44.101Z,41.06
2024-04-25T12:02:15.521Z,40.62
2024-04-25T12:04:45.539Z,40.67
2024-04-25T12:07:16.032Z,41.21
2024-04-25T12:09:48.822Z,39.87
2024-04-25T12:12:20.191Z,40.74
2024-04-25T12:14:50.587Z,41.19
2024-04-25T12:17:20.799Z,41.70
2024-04-25T12:19:51.065Z,41.91
2024-04-25T12:22:21.673Z,41.21
2024-04-25T12:24:54.812Z,41.25
2024-04-25T12:27:25.293Z,40.63
2024-04-25T12:29:55.952Z,40.76
2024-04-25T12:32:26.578Z,42.06
2024-04-25T12:34:56.638Z,40.31
2024-04-25T12:37:26.921Z,41.29
2024-04-25T12:39:59.505Z,41.44
2024-04-25T12:42:29.493Z,40.69
2024-04-25T12:44:59.556Z,41.00
2024-04-25T12:47:29.716Z,40.14
2024-04-25T12:49:59.928Z,41.47
2024-04-25T12:52:31.370Z,40.30
2024-04-25T12:55:04.158Z,40.32
2024-04-25T12:57:34.226Z,40.51
2024-04-25T13:00:04.166Z,40.58
2024-04-25T13:02:34.252Z,40.26
2024-04-25T13:05:04.206Z,40.07
2024-04-25T13:07:34.245Z,39.32
2024-04-25T13:10:07.899Z,40.41
2024-04-25T13:12:38.708Z,40.04
2024-04-25T13:15:09.686Z,39.88
2024-04-25T13:17:39.867Z,40.60
2024-04-25T13:20:11.510Z,41.32
2024-04-25T13:22:41.565Z,41.01
2024-04-25T13:25:14.170Z,41.94
2024-04-25T13:27:44.171Z,42.54
2024-04-25T13:30:14.589Z,43.61
2024-04-25T13:32:46.834Z,44.99
2024-04-25T13:35:19.051Z,46.22
2024-04-25T13:37:50.424Z,46.53
2024-04-25T13:40:25.330Z,47.12
2024-04-25T13:42:55.830Z,49.09
2024-04-25T13:45:26.146Z,49.10
2024-04-25T13:47:56.836Z,48.46
2024-04-25T13:50:27.004Z,47.57
2024-04-25T13:52:57.314Z,48.18
2024-04-25T13:55:29.961Z,46.79
2024-04-25T13:57:59.957Z,47.05
2024-04-25T14:00:30.170Z,47.17
2024-04-25T14:03:00.104Z,45.70
2024-04-25T14:05:30.125Z,45.66
2024-04-25T14:08:00.054Z,44.97
2024-04-25T14:10:32.684Z,46.07
2024-04-25T14:13:02.677Z,46.61
2024-04-25T14:15:32.711Z,47.79
2024-04-25T14:18:02.899Z,47.74
2024-04-25T14:20:33.025Z,45.80
2024-04-25T14:23:03.816Z,45.05
2024-04-25T14:25:52.348Z,45.59
2024-04-25T14:28:40.912Z,45.11
2024-04-25T14:31:10.891Z,45.14
2024-04-25T14:33:42.037Z,45.38
2024-04-25T14:36:12.582Z,45.33
2024-04-25T14:38:43.201Z,45.56
2024-04-25T14:41:18.542Z,45.24
2024-04-25T14:43:55.107Z,43.39
2024-04-25T14:46:28.326Z,42.48
2024-04-25T14:48:58.378Z,42.30
2024-04-25T14:51:28.383Z,42.20
2024-04-25T14:53:58.359Z,42.83
2024-04-25T14:56:31.049Z,42.69
2024-04-25T14:59:01.036Z,42.37
2024-04-25T15:01:31.116Z,42.53
2024-04-25T15:04:05.644Z,42.56
2024-04-25T15:06:42.175Z,42.11
2024-04-25T15:09:16.146Z,41.82
2024-04-25T15:12:06.816Z,42.16
2024-04-25T15:14:37.811Z,41.94
2024-04-25T15:17:12.133Z,41.57
2024-04-25T15:19:45.481Z,41.99
2024-04-25T15:22:15.989Z,42.04
2024-04-25T15:24:46.290Z,42.20
2024-04-25T15:27:19.111Z,42.13
2024-04-25T15:29:50.114Z,44.04
2024-04-25T15:32:23.420Z,45.38
2024-04-25T15:34:53.916Z,46.07
2024-04-25T15:37:24.800Z,46.29
2024-04-25T15:39:56.000Z,46.36
2024-04-25T15:42:29.025Z,46.79
2024-04-25T15:44:59.101Z,46.77
2024-04-25T15:47:29.347Z,46.91
2024-04-25T15:49:59.400Z,47.72
2024-04-25T15:52:33.707Z,48.65
2024-04-25T15:55:03.755Z,48.05
2024-04-25T15:57:36.321Z,48.22
2024-04-25T16:00:07.005Z,49.10
2024-04-25T16:02:37.140Z,49.24
2024-04-25T16:05:08.053Z,49.60
2024-04-25T16:07:38.321Z,48.57
2024-04-25T16:10:09.848Z,47.81
2024-04-25T16:12:42.498Z,47.89
2024-04-25T16:15:12.422Z,48.30
2024-04-25T16:17:39.941Z,49.10
2024-04-25T16:20:12.188Z,49.31
2024-04-25T16:22:43.470Z,49.67
2024-04-25T16:25:13.568Z,49.62
2024-04-25T16:27:46.270Z,49.78
2024-04-25T16:30:16.716Z,51.12
2024-04-25T16:32:46.772Z,51.26
2024-04-25T16:35:17.068Z,51.75
2024-04-25T16:37:47.117Z,52.06
2024-04-25T16:40:17.457Z,52.42
2024-04-25T16:42:50.982Z,53.71
2024-04-25T16:45:21.282Z,53.81
2024-04-25T16:47:51.531Z,53.89
2024-04-25T16:50:22.534Z,53.84
2024-04-25T16:52:53.257Z,54.62
2024-04-25T16:55:25.272Z,55.13
2024-04-25T16:57:57.922Z,55.49
2024-04-25T17:00:27.970Z,55.85
2024-04-25T17:02:58.847Z,57.26
2024-04-25T17:05:28.959Z,57.46
2024-04-25T17:07:59.030Z,57.01
2024-04-25T17:10:29.813Z,56.24
2024-04-25T17:13:03.572Z,56.87
2024-04-25T17:15:33.677Z,57.34
2024-04-25T17:18:04.474Z,56.49
2024-04-25T17:20:34.672Z,56.24
2024-04-25T17:23:06.130Z,57.41
2024-04-25T17:25:36.191Z,57.47
2024-04-25T17:28:09.007Z,57.16
2024-04-25T17:30:38.996Z,57.45
2024-04-25T17:33:10.214Z,57.53
2024-04-25T17:35:40.403Z,57.45
2024-04-25T17:38:10.520Z,56.70
2024-04-25T17:40:40.531Z,57.12
2024-04-25T17:43:13.155Z,56.63
2024-04-25T17:45:43.282Z,56.41
2024-04-25T17:48:15.460Z,54.26
2024-04-25T17:50:45.862Z,53.98
2024-04-25T17:53:15.926Z,54.06
2024-04-25T17:55:46.008Z,53.60
2024-04-25T17:58:22.789Z,54.03
2024-04-25T18:00:56.316Z,53.07
2024-04-25T18:03:27.041Z,53.53
2024-04-25T18:05:57.731Z,53.40
2024-04-25T18:08:27.840Z,52.96
2024-04-25T18:10:59.208Z,53.72
2024-04-25T18:13:31.874Z,53.79
2024-04-25T18:16:01.899Z,54.64
2024-04-25T18:18:32.281Z,54.34
2024-04-25T18:21:02.275Z,54.85
2024-04-25T18:23:32.261Z,56.01
2024-04-25T18:26:02.233Z,57.24
2024-04-25T18:28:34.824Z,57.66
2024-04-25T18:31:04.810Z,57.43
2024-04-25T18:33:34.918Z,58.10
2024-04-25T18:36:05.115Z,58.24
2024-04-25T18:38:35.134Z,58.39
2024-04-25T18:41:05.111Z,59.60
2024-04-25T18:43:37.827Z,59.24
2024-04-25T18:46:08.157Z,57.05
2024-04-25T18:48:39.615Z,58.54
2024-04-25T18:51:09.910Z,59.25
2024-04-25T18:53:39.904Z,60.13
2024-04-25T18:56:10.359Z,58.43
2024-04-25T18:58:42.948Z,60.16
2024-04-25T19:01:12.948Z,60.19
2024-04-25T19:03:42.905Z,59.67
2024-04-25T19:06:13.061Z,58.24
2024-04-25T19:08:43.004Z,58.00
2024-04-25T19:11:13.007Z,59.79
2024-04-25T19:13:47.418Z,56.61
2024-04-25T19:16:25.770Z,57.46
2024-04-25T19:18:58.685Z,56.09
2024-04-25T19:21:28.686Z,55.89
2024-04-25T19:23:59.520Z,56.27
2024-04-25T19:26:29.704Z,56.70
2024-04-25T19:29:02.976Z,57.24
2024-04-25T19:31:33.014Z,56.75
2024-04-25T19:34:03.621Z,56.17
2024-04-25T19:36:33.756Z,57.04
2024-04-25T19:39:03.801Z,56.33
2024-04-25T19:41:33.976Z,57.16
2024-04-25T19:44:06.651Z,56.87
2024-04-25T19:46:36.662Z,58.27
2024-04-25T19:49:06.710Z,59.28
2024-04-25T19:51:37.214Z,59.27
2024-04-25T19:54:07.371Z,60.06
2024-04-25T19:56:37.398Z,60.42
2024-04-25T19:59:10.548Z,62.24
2024-04-25T20:01:40.470Z,62.64
2024-04-25T20:04:10.498Z,63.10
2024-04-25T20:06:40.487Z,63.56
2024-04-25T20:09:10.481Z,64.22
2024-04-25T20:11:43.343Z,64.65
2024-04-25T20:14:16.095Z,64.60
2024-04-25T20:16:46.350Z,65.28
2024-04-25T20:19:32.442Z,65.82
2024-04-25T20:22:02.953Z,67.14
2024-04-25T20:24:33.112Z,66.56
2024-04-25T20:27:03.678Z,66.75
2024-04-25T20:29:36.372Z,66.21
2024-04-25T20:32:06.345Z,66.57
2024-04-25T20:34:36.283Z,65.55
2024-04-25T20:37:06.375Z,66.37
2024-04-25T20:39:36.374Z,66.16
2024-04-25T20:42:06.529Z,65.79
2024-04-25T20:44:39.141Z,65.77
2024-04-25T20:47:10.001Z,64.01
2024-04-25T20:49:40.009Z,66.04
2024-04-25T20:52:10.102Z,65.19
2024-04-25T20:54:40.417Z,66.27
2024-04-25T20:57:10.541Z,66.99
2024-04-25T20:59:45.556Z,67.40
2024-04-25T21:02:15.664Z,68.04
2024-04-25T21:04:45.654Z,66.53
2024-04-25T21:07:15.710Z,66.42
2024-04-25T21:09:45.669Z,66.90
2024-04-25T21:12:18.976Z,66.70
2024-04-25T21:14:52.216Z,65.98
2024-04-25T21:17:28.751Z,66.54
2024-04-25T21:19:58.872Z,66.28
2024-04-25T21:22:28.867Z,67.41
2024-04-25T21:24:58.847Z,67.41
2024-04-25T21:27:29.032Z,67.91
2024-04-25T21:30:01.738Z,68.64
2024-04-25T21:32:42.857Z,69.24
2024-04-25T21:35:15.973Z,69.87
2024-04-25T21:37:46.976Z,70.17
2024-04-25T21:40:17.137Z,70.78
2024-04-25T21:42:47.415Z,71.27
2024-04-25T21:45:20.221Z,72.27
2024-04-25T21:47:50.723Z,71.24
2024-04-25T21:50:21.004Z,69.01
2024-04-25T21:52:51.400Z,69.62
2024-04-25T21:55:21.877Z,70.16
2024-04-25T21:57:52.268Z,71.39
2024-04-25T22:00:25.192Z,70.99
2024-04-25T22:02:55.931Z,72.71
2024-04-25T22:05:28.167Z,73.41
2024-04-25T22:07:58.381Z,72.42
2024-04-25T22:10:28.593Z,72.01
2024-04-25T22:13:00.287Z,72.48
2024-04-25T22:15:33.165Z,72.21
2024-04-25T22:18:06.301Z,71.81
2024-04-25T22:20:36.534Z,71.69
2024-04-25T22:23:06.744Z,71.75
2024-04-25T22:25:40.352Z,71.59
2024-04-25T22:28:11.437Z,69.28
2024-04-25T22:30:44.217Z,68.67
2024-04-25T22:33:14.277Z,68.26
2024-04-25T22:35:44.373Z,68.05
2024-04-25T22:38:14.637Z,66.54
2024-04-25T22:40:44.773Z,66.18
2024-04-25T22:43:14.768Z,66.28
2024-04-25T22:45:47.550Z,67.53
2024-04-25T22:48:18.086Z,66.85
2024-04-25T22:50:49.307Z,67.64
2024-04-25T22:53:19.724Z,69.09
2024-04-25T22:55:50.763Z,70.16
2024-04-25T22:58:21.106Z,69.60
2024-04-25T23:00:54.540Z,69.34
2024-04-25T23:03:27.818Z,69.43
2024-04-25T23:05:59.471Z,71.08
2024-04-25T23:08:30.661Z,69.34
2024-04-25T23:11:00.798Z,68.94
2024-04-25T23:13:31.120Z,68.54
2024-04-25T23:16:04.008Z,69.67
2024-04-25T23:18:33.621Z,70.99
2024-04-25T23:21:04.746Z,72.25
2024-04-25T23:23:34.898Z,72.59
2024-04-25T23:26:05.519Z,69.87
2024-04-25T23:28:35.479Z,67.47
2024-04-25T23:31:08.200Z,66.81
2024-04-25T23:33:38.400Z,67.82
2024-04-25T23:36:11.642Z,66.13
2024-04-25T23:38:41.715Z,65.85
2024-04-25T23:41:11.687Z,66.67
2024-04-25T23:43:40.065Z,68.66
2024-04-25T23:46:12.824Z,69.59
2024-04-25T23:48:43.244Z,68.82
2024-04-25T23:51:13.262Z,68.01
2024-04-25T23:53:43.386Z,66.17
2024-04-25T23:56:13.348Z,66.55
2024-04-25T23:58:45.121Z,66.15
